Terminal Aerodrome Forecast
Issued by NWS Wilmington, OH

Current Version | Previous Version | Graphics & Text | Print | Product List | Glossary On
Versions: 1 2 3 4 5 6 7 8 9 10 11 12 13 14 15 16 17 18 19 20 21 22 23 24 25 26 27 28 29 30 31 32
000
FTUS41 KILN 291800 AAA
TAFCMH
TAF AMD
KCMH 291858Z 2919/3018 12009KT P6SM VCSH BKN029 OVC045
      TEMPO 2919/2923 5SM SHRA BR BKN008 OVC015
     FM300000 16012KT P6SM VCSH BKN035
     FM300400 23010KT P6SM BKN035
     FM301400 23010KT P6SM VCSH BKN040=

USA.gov is the U.S. government's official web portal to all federal, state and local government web resources and services.